createdAt,value
2018-07-26T00:01:24.641Z,24.80
2018-07-26T00:03:52.904Z,24.70
2018-07-26T00:06:21.185Z,24.70
2018-07-26T00:08:49.524Z,24.70
2018-07-26T00:11:18.116Z,24.70
2018-07-26T00:13:46.403Z,24.70
2018-07-26T00:16:14.684Z,24.70
2018-07-26T00:18:42.973Z,24.60
2018-07-26T00:21:11.267Z,24.60
2018-07-26T00:23:39.540Z,24.50
2018-07-26T00:28:36.072Z,24.50
2018-07-26T00:31:04.389Z,24.50
2018-07-26T00:33:32.655Z,24.50
2018-07-26T00:36:00.974Z,24.40
2018-07-26T00:40:57.248Z,24.40
2018-07-26T00:45:53.534Z,24.40
2018-07-26T00:48:21.815Z,24.30
2018-07-26T00:53:18.107Z,24.30
2018-07-26T00:55:46.378Z,24.30
2018-07-26T00:58:14.668Z,24.20
2018-07-26T01:00:42.962Z,24.20
2018-07-26T01:03:11.533Z,24.20
2018-07-26T01:05:39.872Z,24.20
2018-07-26T01:13:10.940Z,24.20
2018-07-26T01:15:39.215Z,24.20
2018-07-26T01:18:07.515Z,24.20
2018-07-26T01:23:03.775Z,24.10
2018-07-26T01:25:32.364Z,24.10
2018-07-26T01:28:00.644Z,24.10
2018-07-26T01:30:28.929Z,24.10
2018-07-26T01:32:57.296Z,24.10
2018-07-26T01:35:25.565Z,24.10
2018-07-26T01:37:53.923Z,24.10
2018-07-26T01:43:01.668Z,24.00
2018-07-26T01:47:57.942Z,24.10
2018-07-26T01:52:54.256Z,24.00
2018-07-26T01:55:22.528Z,24.00
2018-07-26T01:57:50.803Z,24.00
2018-07-26T02:00:19.121Z,24.00
2018-07-26T02:02:47.461Z,24.00
2018-07-26T02:05:15.809Z,23.90
2018-07-26T02:07:44.096Z,23.90
2018-07-26T02:10:15.399Z,23.90
2018-07-26T02:12:43.675Z,23.80
2018-07-26T02:15:12.177Z,23.80
2018-07-26T02:17:40.806Z,23.90
2018-07-26T02:20:09.073Z,23.80
2018-07-26T02:22:37.450Z,23.80
2018-07-26T02:27:33.749Z,23.80
2018-07-26T02:30:02.008Z,23.80
2018-07-26T02:34:58.352Z,23.80
2018-07-26T02:37:26.628Z,23.80
2018-07-26T02:39:54.896Z,23.80
2018-07-26T02:42:23.189Z,23.80
2018-07-26T02:44:51.495Z,23.80
2018-07-26T02:47:19.771Z,23.80
2018-07-26T02:49:48.068Z,23.80
2018-07-26T02:52:16.373Z,23.80
2018-07-26T02:54:44.733Z,23.70
2018-07-26T02:57:13.000Z,23.80
2018-07-26T02:59:41.281Z,23.80
2018-07-26T03:02:09.871Z,23.80
2018-07-26T03:04:38.172Z,23.80
2018-07-26T03:07:06.592Z,23.80
2018-07-26T03:12:02.823Z,23.80
2018-07-26T03:17:03.440Z,23.80
2018-07-26T03:19:31.785Z,23.80
2018-07-26T03:24:28.056Z,23.70
2018-07-26T03:29:24.372Z,23.60
2018-07-26T03:31:52.636Z,23.70
2018-07-26T03:34:20.959Z,23.60
2018-07-26T03:36:49.741Z,23.60
2018-07-26T03:39:18.097Z,23.60
2018-07-26T03:44:14.880Z,23.60
2018-07-26T03:46:43.202Z,23.50
2018-07-26T03:49:11.744Z,23.50
2018-07-26T03:51:40.021Z,23.50
2018-07-26T03:54:08.313Z,23.40
2018-07-26T03:56:36.644Z,23.40
2018-07-26T03:59:05.199Z,23.40
2018-07-26T04:01:33.593Z,23.40
2018-07-26T04:04:01.966Z,23.40
2018-07-26T04:06:30.256Z,23.40
2018-07-26T04:08:58.567Z,23.40
2018-07-26T04:11:27.165Z,23.40
2018-07-26T04:13:55.532Z,23.40
2018-07-26T04:16:23.780Z,23.40
2018-07-26T04:18:52.106Z,23.40
2018-07-26T04:21:20.387Z,23.40
2018-07-26T04:23:48.680Z,23.30
2018-07-26T04:26:16.980Z,23.30
2018-07-26T04:28:45.409Z,23.40
2018-07-26T04:31:13.680Z,23.40
2018-07-26T04:33:41.974Z,23.40
2018-07-26T04:38:38.401Z,23.30
2018-07-26T04:41:06.787Z,23.40
2018-07-26T04:43:35.555Z,23.40
2018-07-26T04:46:04.748Z,23.40
2018-07-26T04:51:01.416Z,23.40
2018-07-26T04:53:29.755Z,23.40
2018-07-26T04:55:58.013Z,23.40
2018-07-26T05:00:55.159Z,23.50
2018-07-26T05:03:23.656Z,23.50
2018-07-26T05:05:51.984Z,23.50
2018-07-26T05:10:48.299Z,23.50
2018-07-26T05:13:16.594Z,23.50
2018-07-26T05:15:44.899Z,23.50
2018-07-26T05:18:13.155Z,23.50
2018-07-26T05:20:41.432Z,23.50
2018-07-26T05:23:09.793Z,23.60
2018-07-26T05:25:38.088Z,23.70
2018-07-26T05:30:34.394Z,23.70
2018-07-26T05:33:03.040Z,23.70
2018-07-26T05:35:31.312Z,23.70
2018-07-26T05:37:59.613Z,23.70
2018-07-26T05:40:27.893Z,23.70
2018-07-26T05:42:56.192Z,23.80
2018-07-26T05:45:24.564Z,23.80
2018-07-26T05:47:52.883Z,23.80
2018-07-26T05:52:50.128Z,23.90
2018-07-26T05:55:18.446Z,23.90
2018-07-26T05:57:46.734Z,23.90
2018-07-26T06:00:15.195Z,24.00
2018-07-26T06:02:44.229Z,24.00
2018-07-26T06:05:12.495Z,24.10
2018-07-26T06:07:40.836Z,24.10
2018-07-26T06:10:09.676Z,24.20
2018-07-26T06:12:37.971Z,24.30
2018-07-26T06:15:09.043Z,24.30
2018-07-26T06:17:37.354Z,24.40
2018-07-26T06:20:07.266Z,24.40
2018-07-26T06:22:35.547Z,24.40
2018-07-26T06:25:03.915Z,24.50
2018-07-26T06:27:32.191Z,24.50
2018-07-26T06:30:00.513Z,24.60
2018-07-26T06:32:28.965Z,24.60
2018-07-26T06:34:57.264Z,24.70
2018-07-26T06:37:25.602Z,24.80
2018-07-26T06:39:53.895Z,24.90
2018-07-26T06:42:22.184Z,24.90
2018-07-26T06:44:50.553Z,25.00
2018-07-26T06:47:19.280Z,25.00
2018-07-26T06:49:47.570Z,25.00
2018-07-26T06:52:15.904Z,25.10
2018-07-26T06:54:44.227Z,25.10
2018-07-26T06:57:12.560Z,25.10
2018-07-26T06:59:40.864Z,25.10
2018-07-26T07:02:09.348Z,25.20
2018-07-26T07:04:37.648Z,25.30
2018-07-26T07:07:05.931Z,25.30
2018-07-26T07:09:34.244Z,25.40
2018-07-26T07:12:02.540Z,25.50
2018-07-26T07:14:30.987Z,25.50
2018-07-26T07:19:27.296Z,25.70
2018-07-26T07:21:55.599Z,25.80
2018-07-26T07:24:24.002Z,25.80
2018-07-26T07:26:59.190Z,25.80
2018-07-26T07:29:27.463Z,25.90
2018-07-26T07:34:23.918Z,26.00
2018-07-26T07:36:52.400Z,26.10
2018-07-26T07:39:20.692Z,26.20
2018-07-26T07:41:49.043Z,26.30
2018-07-26T07:44:17.260Z,26.30
2018-07-26T07:46:45.549Z,26.30
2018-07-26T07:49:13.826Z,26.40
2018-07-26T07:51:42.122Z,26.50
2018-07-26T07:54:10.412Z,26.60
2018-07-26T07:56:38.717Z,26.70
2018-07-26T07:59:06.984Z,26.70
2018-07-26T08:01:35.274Z,26.80
2018-07-26T08:04:03.603Z,26.90
2018-07-26T08:06:31.882Z,27.00
2018-07-26T08:09:00.135Z,27.00
2018-07-26T08:11:28.767Z,27.10
2018-07-26T08:13:57.040Z,27.10
2018-07-26T08:16:25.336Z,27.20
2018-07-26T08:18:53.607Z,27.30
2018-07-26T08:21:21.898Z,27.40
2018-07-26T08:23:50.165Z,27.40
2018-07-26T08:26:18.432Z,27.50
2018-07-26T08:28:47.012Z,27.60
2018-07-26T08:33:43.469Z,27.80
2018-07-26T08:38:39.785Z,27.90
2018-07-26T08:41:08.291Z,28.00
2018-07-26T08:46:05.412Z,28.20
2018-07-26T08:48:33.683Z,28.30
2018-07-26T08:51:01.991Z,28.40
2018-07-26T08:53:30.326Z,28.40
2018-07-26T08:55:58.639Z,28.40
2018-07-26T08:58:26.922Z,28.50
2018-07-26T09:00:55.301Z,28.60
2018-07-26T09:03:23.604Z,28.70
2018-07-26T09:05:51.873Z,28.70
2018-07-26T09:08:20.441Z,28.90
2018-07-26T09:13:16.788Z,29.10
2018-07-26T09:15:45.093Z,29.20
2018-07-26T09:18:13.342Z,29.30
2018-07-26T09:20:41.631Z,29.40
2018-07-26T09:23:09.892Z,29.40
2018-07-26T09:25:38.770Z,29.50
2018-07-26T09:30:35.093Z,29.70
2018-07-26T09:33:03.417Z,29.80
2018-07-26T09:35:31.728Z,29.80
2018-07-26T09:37:59.996Z,29.90
2018-07-26T09:40:28.236Z,29.90
2018-07-26T09:42:56.552Z,30.00
2018-07-26T09:45:24.830Z,30.10
2018-07-26T09:47:53.231Z,30.20
2018-07-26T09:50:21.548Z,30.20
2018-07-26T09:52:50.351Z,30.30
2018-07-26T09:57:46.780Z,30.40
2018-07-26T10:00:19.358Z,30.50
2018-07-26T10:02:47.642Z,30.60
2018-07-26T10:05:15.935Z,30.60
2018-07-26T10:07:44.226Z,30.70
2018-07-26T10:10:12.594Z,30.70
2018-07-26T10:12:40.876Z,30.80
2018-07-26T10:15:09.232Z,30.90
2018-07-26T10:17:37.468Z,31.00
2018-07-26T10:20:05.851Z,31.10
2018-07-26T10:22:34.117Z,31.10
2018-07-26T10:27:30.509Z,31.40
2018-07-26T10:29:58.855Z,31.40
2018-07-26T10:32:27.154Z,31.60
2018-07-26T10:34:55.456Z,31.70
2018-07-26T10:39:52.068Z,31.90
2018-07-26T10:42:20.383Z,32.10
2018-07-26T10:44:48.670Z,32.30
2018-07-26T10:47:16.977Z,32.40
2018-07-26T10:49:45.233Z,32.50
2018-07-26T10:52:13.535Z,32.60
2018-07-26T10:54:41.783Z,32.70
2018-07-26T10:57:10.551Z,32.80
2018-07-26T10:59:38.845Z,32.90
2018-07-26T11:02:07.102Z,33.00
2018-07-26T11:04:35.384Z,33.20
2018-07-26T11:07:03.656Z,33.40
2018-07-26T11:09:32.006Z,33.60
2018-07-26T11:12:00.280Z,33.70
2018-07-26T11:14:28.595Z,33.90
2018-07-26T11:16:56.861Z,34.00
2018-07-26T11:21:53.502Z,34.10
2018-07-26T11:24:21.885Z,34.20
2018-07-26T11:26:50.156Z,34.20
2018-07-26T11:29:18.433Z,34.10
2018-07-26T11:31:46.737Z,34.10
2018-07-26T11:34:15.127Z,34.20
2018-07-26T11:36:43.427Z,34.20
2018-07-26T11:39:11.930Z,34.40
2018-07-26T11:41:40.337Z,34.40
2018-07-26T11:44:08.669Z,34.50
2018-07-26T11:46:37.203Z,34.60
2018-07-26T11:49:05.551Z,34.70
2018-07-26T11:54:01.918Z,35.00
2018-07-26T11:56:30.206Z,35.10
2018-07-26T11:58:58.508Z,35.20
2018-07-26T12:03:54.799Z,35.20
2018-07-26T12:06:23.104Z,35.20
2018-07-26T12:08:51.355Z,35.30
2018-07-26T12:11:19.667Z,35.20
2018-07-26T12:13:48.006Z,35.20
2018-07-26T12:16:16.616Z,35.30
2018-07-26T12:18:44.899Z,35.40
2018-07-26T12:21:13.200Z,35.50
2018-07-26T12:23:41.482Z,35.60
2018-07-26T12:26:09.763Z,35.60
2018-07-26T12:28:38.068Z,35.60
2018-07-26T12:33:34.398Z,35.70
2018-07-26T12:36:02.646Z,35.80
2018-07-26T12:38:30.920Z,35.70
2018-07-26T12:43:27.258Z,35.90
2018-07-26T12:45:55.550Z,36.00
2018-07-26T12:48:23.817Z,36.10
2018-07-26T12:50:52.327Z,36.30
2018-07-26T12:53:20.657Z,36.30
2018-07-26T12:55:48.916Z,36.50
2018-07-26T12:58:17.195Z,36.40
2018-07-26T13:00:45.514Z,36.40
2018-07-26T13:03:13.782Z,36.60
2018-07-26T13:05:42.044Z,36.70
2018-07-26T13:08:10.371Z,36.70
2018-07-26T13:10:38.633Z,36.70
2018-07-26T13:13:06.967Z,36.80
2018-07-26T13:15:35.232Z,36.90
2018-07-26T13:18:03.524Z,37.00
2018-07-26T13:20:31.882Z,37.20
2018-07-26T13:32:24.593Z,37.20
2018-07-26T13:34:53.045Z,37.40
2018-07-26T13:37:21.373Z,37.30
2018-07-26T13:39:49.760Z,37.50
2018-07-26T13:42:17.995Z,37.70
2018-07-26T13:44:46.308Z,37.90
2018-07-26T13:47:14.600Z,38.00
2018-07-26T13:49:42.872Z,38.00
2018-07-26T13:52:11.174Z,38.00
2018-07-26T13:54:39.452Z,38.00
2018-07-26T13:57:07.884Z,38.20
2018-07-26T13:59:36.163Z,38.10
2018-07-26T14:04:32.612Z,38.10
2018-07-26T14:07:00.976Z,38.00
2018-07-26T14:09:29.271Z,38.10
2018-07-26T14:11:57.573Z,38.10
2018-07-26T14:14:25.836Z,38.10
2018-07-26T14:16:54.336Z,38.20
2018-07-26T14:19:22.607Z,38.30
2018-07-26T14:21:50.868Z,38.20
2018-07-26T14:26:50.958Z,37.70
2018-07-26T14:29:19.301Z,37.40
2018-07-26T14:31:47.564Z,37.10
2018-07-26T14:34:15.868Z,36.80
2018-07-26T14:36:44.837Z,36.70
2018-07-26T14:39:13.534Z,36.60
2018-07-26T14:41:41.844Z,36.70
2018-07-26T14:44:10.869Z,36.90
2018-07-26T14:46:39.545Z,37.10
2018-07-26T14:49:07.854Z,37.10
2018-07-26T14:51:36.224Z,37.00
2018-07-26T14:54:04.565Z,37.00
2018-07-26T14:56:32.937Z,37.20
2018-07-26T14:59:01.267Z,37.40
2018-07-26T15:01:29.544Z,37.50
2018-07-26T15:03:57.913Z,37.30
2018-07-26T15:06:26.270Z,37.20
2018-07-26T15:08:54.660Z,37.00
2018-07-26T15:11:23.442Z,36.80
2018-07-26T15:13:52.102Z,36.70
2018-07-26T15:16:20.412Z,36.60
2018-07-26T15:18:48.701Z,36.60
2018-07-26T15:21:17.097Z,36.60
2018-07-26T15:23:45.340Z,36.50
2018-07-26T15:26:13.664Z,36.50
2018-07-26T15:28:41.872Z,36.50
2018-07-26T15:31:10.739Z,36.50
2018-07-26T15:33:38.451Z,36.50
2018-07-26T15:36:06.738Z,36.60
2018-07-26T15:38:35.092Z,36.40
2018-07-26T15:43:31.500Z,36.50
2018-07-26T15:45:59.760Z,36.40
2018-07-26T15:48:28.087Z,36.40
2018-07-26T15:50:56.483Z,36.40
2018-07-26T15:53:24.973Z,36.50
2018-07-26T15:55:53.252Z,36.60
2018-07-26T15:58:21.635Z,36.60
2018-07-26T16:00:49.903Z,36.70
2018-07-26T16:03:30.197Z,36.70
2018-07-26T16:08:26.781Z,36.60
2018-07-26T16:10:55.468Z,36.50
2018-07-26T16:13:23.741Z,36.50
2018-07-26T16:15:52.140Z,36.50
2018-07-26T16:18:20.649Z,36.30
2018-07-26T16:20:48.924Z,36.20
2018-07-26T16:23:18.009Z,36.20
2018-07-26T16:25:46.290Z,36.10
2018-07-26T16:28:14.553Z,36.00
2018-07-26T16:30:42.824Z,36.10
2018-07-26T16:33:11.072Z,36.10
2018-07-26T16:35:39.348Z,36.10
2018-07-26T16:38:07.624Z,36.10
2018-07-26T16:45:32.197Z,36.20
2018-07-26T16:48:00.478Z,36.20
2018-07-26T16:52:56.803Z,36.30
2018-07-26T16:55:25.105Z,36.40
2018-07-26T16:57:53.376Z,36.40
2018-07-26T17:00:21.663Z,36.30
2018-07-26T17:02:49.939Z,36.40
2018-07-26T17:05:18.185Z,36.40
2018-07-26T17:07:46.471Z,36.40
2018-07-26T17:10:14.955Z,36.40
2018-07-26T17:12:43.219Z,36.20
2018-07-26T17:15:11.713Z,35.90
2018-07-26T17:17:39.979Z,35.70
2018-07-26T17:20:09.395Z,35.60
2018-07-26T17:22:37.652Z,35.50
2018-07-26T17:25:05.934Z,35.50
2018-07-26T17:34:23.144Z,35.40
2018-07-26T17:36:51.415Z,35.40
2018-07-26T17:39:19.695Z,35.10
2018-07-26T17:41:49.472Z,35.10
2018-07-26T17:44:17.735Z,35.10
2018-07-26T17:46:45.992Z,35.20
2018-07-26T17:49:14.248Z,35.10
2018-07-26T17:51:42.507Z,35.10
2018-07-26T17:54:10.822Z,35.10
2018-07-26T17:56:39.099Z,35.00
2018-07-26T17:59:07.449Z,34.80
2018-07-26T18:04:03.892Z,34.80
2018-07-26T18:06:32.238Z,34.70
2018-07-26T18:09:00.639Z,34.70
2018-07-26T18:11:29.000Z,34.70
2018-07-26T18:16:25.361Z,34.80
2018-07-26T18:18:53.926Z,34.80
2018-07-26T18:21:22.188Z,34.80
2018-07-26T18:23:50.485Z,34.80
2018-07-26T18:26:18.800Z,34.80
2018-07-26T18:28:47.176Z,34.70
2018-07-26T18:31:15.460Z,34.50
2018-07-26T18:33:43.727Z,34.30
2018-07-26T18:36:12.030Z,34.10
2018-07-26T18:38:40.320Z,33.90
2018-07-26T18:41:08.630Z,33.70
2018-07-26T18:43:36.916Z,33.30
2018-07-26T18:46:05.224Z,33.00
2018-07-26T18:48:33.521Z,33.00
2018-07-26T18:51:02.884Z,32.80
2018-07-26T18:55:59.299Z,32.70
2018-07-26T18:58:27.593Z,32.50
2018-07-26T19:00:56.159Z,32.30
2018-07-26T19:03:24.698Z,32.30
2018-07-26T19:08:21.140Z,32.00
2018-07-26T19:10:49.454Z,31.90
2018-07-26T19:13:17.794Z,31.90
2018-07-26T19:15:46.099Z,31.80
2018-07-26T19:18:14.362Z,31.80
2018-07-26T19:20:42.632Z,31.70
2018-07-26T19:23:10.905Z,31.70
2018-07-26T19:28:07.182Z,31.70
2018-07-26T19:33:03.445Z,31.50
2018-07-26T19:37:59.748Z,31.30
2018-07-26T19:40:28.015Z,31.20
2018-07-26T19:45:24.485Z,31.10
2018-07-26T19:47:52.809Z,31.00
2018-07-26T19:50:21.097Z,30.90
2018-07-26T19:52:49.375Z,30.90
2018-07-26T19:56:01.142Z,30.80
2018-07-26T20:00:57.495Z,30.60
2018-07-26T20:03:25.919Z,30.50
2018-07-26T20:08:22.318Z,30.30
2018-07-26T20:10:50.579Z,30.20
2018-07-26T20:15:46.872Z,30.00
2018-07-26T20:18:15.133Z,29.90
2018-07-26T20:20:43.432Z,29.80
2018-07-26T20:25:41.045Z,29.70
2018-07-26T20:30:38.410Z,29.50
2018-07-26T20:33:06.705Z,29.40
2018-07-26T20:35:34.983Z,29.40
2018-07-26T20:38:03.288Z,29.40
2018-07-26T20:45:27.619Z,29.20
2018-07-26T20:47:55.891Z,29.10
2018-07-26T20:50:24.172Z,29.10
2018-07-26T20:52:52.465Z,29.00
2018-07-26T20:55:20.726Z,29.00
2018-07-26T20:57:49.056Z,29.00
2018-07-26T21:00:17.375Z,28.90
2018-07-26T21:05:13.752Z,28.80
2018-07-26T21:07:43.892Z,28.80
2018-07-26T21:10:18.881Z,28.80
2018-07-26T21:12:47.154Z,28.70
2018-07-26T21:15:15.444Z,28.70
2018-07-26T21:17:47.682Z,28.70
2018-07-26T21:22:44.164Z,28.70
2018-07-26T21:27:48.435Z,28.60
2018-07-26T21:30:19.908Z,28.50
2018-07-26T21:32:55.245Z,28.50
2018-07-26T21:35:27.282Z,28.50
2018-07-26T21:38:10.431Z,28.40
2018-07-26T21:40:38.741Z,28.40
2018-07-26T21:43:07.215Z,28.40
2018-07-26T21:45:35.551Z,28.30
2018-07-26T21:48:03.828Z,28.30
2018-07-26T21:50:32.141Z,28.30
2018-07-26T21:53:00.414Z,28.20
2018-07-26T21:55:28.774Z,28.20
2018-07-26T21:57:57.004Z,28.20
2018-07-26T22:00:35.706Z,28.20
2018-07-26T22:03:03.983Z,28.20
2018-07-26T22:05:32.240Z,28.10
2018-07-26T22:08:00.520Z,28.10
2018-07-26T22:10:28.780Z,28.10
2018-07-26T22:12:57.135Z,28.00
2018-07-26T22:15:25.440Z,28.00
2018-07-26T22:17:53.712Z,28.00
2018-07-26T22:20:22.072Z,27.90
2018-07-26T22:22:50.355Z,27.90
2018-07-26T22:25:19.413Z,27.90
2018-07-26T22:32:44.404Z,27.80
2018-07-26T22:35:12.705Z,27.80
2018-07-26T22:37:40.968Z,27.80
2018-07-26T22:40:09.235Z,27.80
2018-07-26T22:42:37.544Z,27.80
2018-07-26T22:45:06.015Z,27.80
2018-07-26T22:47:34.363Z,27.70
2018-07-26T22:50:02.723Z,27.70
2018-07-26T22:52:31.482Z,27.70
2018-07-26T22:55:00.018Z,27.70
2018-07-26T22:57:28.281Z,27.80
2018-07-26T23:02:24.571Z,27.70
2018-07-26T23:04:52.872Z,27.70
2018-07-26T23:07:21.171Z,27.70
2018-07-26T23:09:49.564Z,27.70
2018-07-26T23:12:17.832Z,27.60
2018-07-26T23:14:46.108Z,27.60
2018-07-26T23:22:10.451Z,27.50
2018-07-26T23:24:38.705Z,27.50
2018-07-26T23:27:06.984Z,27.50
2018-07-26T23:29:35.274Z,27.40
2018-07-26T23:32:03.551Z,27.40
2018-07-26T23:34:31.828Z,27.40
2018-07-26T23:37:00.555Z,27.40
2018-07-26T23:39:28.825Z,27.30
2018-07-26T23:41:57.100Z,27.30
2018-07-26T23:44:25.371Z,27.30
2018-07-26T23:46:53.634Z,27.20
2018-07-26T23:49:22.756Z,27.20
2018-07-26T23:54:19.027Z,27.10
2018-07-26T23:59:15.362Z,27.00
